Terminal Aerodrome Forecast
Issued by NWS St Louis, MO

Home | Current Version | Previous Version | Text Only | Print | Product List | Glossary On
Versions: 1 2 3 4 5 6 7 8 9 10 11 12 13 14 15 16 17 18 19 20 21
604
FTUS43 KLSX 221139 AAA
TAFCOU
TAF AMD
KCOU 221139Z 2212/2312 03012KT 6SM -SHRA OVC060
     FM221500 36014G23KT 6SM BR VCSH OVC045
     FM221800 36014G23KT P6SM OVC045
     FM230300 33013G22KT P6SM OVC015=

USA.gov is the U.S. government's official web portal to all federal, state and local government web resources and services.